sensor_id;sensor_type;location;lat;lon;timestamp;P1;durP1;ratioP1;P2;durP2;ratioP2
70715;SDS011;59053;50.832;12.882;2023-05-10T00:00:10;5.60;;;3.05;;
70715;SDS011;59053;50.832;12.882;2023-05-10T00:02:38;7.47;;;3.27;;
70715;SDS011;59053;50.832;12.882;2023-05-10T00:05:04;5.57;;;3.13;;
70715;SDS011;59053;50.832;12.882;2023-05-10T00:07:30;6.10;;;3.33;;
70715;SDS011;59053;50.832;12.882;2023-05-10T00:10:00;5.23;;;3.00;;
70715;SDS011;59053;50.832;12.882;2023-05-10T00:12:26;5.82;;;3.20;;
70715;SDS011;59053;50.832;12.882;2023-05-10T00:14:52;6.20;;;3.30;;
70715;SDS011;59053;50.832;12.882;2023-05-10T00:17:24;6.97;;;3.30;;
70715;SDS011;59053;50.832;12.882;2023-05-10T00:23:48;5.43;;;3.17;;
70715;SDS011;59053;50.832;12.882;2023-05-10T00:26:14;6.67;;;2.97;;
70715;SDS011;59053;50.832;12.882;2023-05-10T00:28:43;6.10;;;3.13;;
70715;SDS011;59053;50.832;12.882;2023-05-10T00:33:59;6.68;;;3.15;;
70715;SDS011;59053;50.832;12.882;2023-05-10T00:36:24;7.23;;;3.17;;
70715;SDS011;59053;50.832;12.882;2023-05-10T00:38:50;6.20;;;3.20;;
70715;SDS011;59053;50.832;12.882;2023-05-10T00:41:16;7.75;;;3.30;;
70715;SDS011;59053;50.832;12.882;2023-05-10T00:43:43;6.75;;;3.30;;
70715;SDS011;59053;50.832;12.882;2023-05-10T00:46:20;7.23;;;3.23;;
70715;SDS011;59053;50.832;12.882;2023-05-10T00:48:46;5.65;;;3.00;;
70715;SDS011;59053;50.832;12.882;2023-05-10T00:51:13;7.20;;;3.30;;
70715;SDS011;59053;50.832;12.882;2023-05-10T00:53:38;6.63;;;3.28;;
70715;SDS011;59053;50.832;12.882;2023-05-10T00:56:04;5.97;;;3.10;;
70715;SDS011;59053;50.832;12.882;2023-05-10T00:58:39;5.97;;;3.10;;
70715;SDS011;59053;50.832;12.882;2023-05-10T01:08:00;6.32;;;3.20;;
70715;SDS011;59053;50.832;12.882;2023-05-10T01:13:16;7.22;;;3.05;;
70715;SDS011;59053;50.832;12.882;2023-05-10T01:15:54;8.20;;;3.20;;
70715;SDS011;59053;50.832;12.882;2023-05-10T01:21:23;7.10;;;3.30;;
70715;SDS011;59053;50.832;12.882;2023-05-10T01:29:47;9.27;;;3.10;;
70715;SDS011;59053;50.832;12.882;2023-05-10T01:32:41;6.07;;;3.30;;
70715;SDS011;59053;50.832;12.882;2023-05-10T01:35:17;6.80;;;3.25;;
70715;SDS011;59053;50.832;12.882;2023-05-10T01:52:30;7.28;;;3.50;;
70715;SDS011;59053;50.832;12.882;2023-05-10T01:58:21;11.33;;;3.77;;
70715;SDS011;59053;50.832;12.882;2023-05-10T02:00:49;6.72;;;3.60;;
70715;SDS011;59053;50.832;12.882;2023-05-10T02:03:18;6.90;;;3.30;;
70715;SDS011;59053;50.832;12.882;2023-05-10T02:08:20;6.63;;;3.55;;
70715;SDS011;59053;50.832;12.882;2023-05-10T02:13:44;6.63;;;3.38;;
70715;SDS011;59053;50.832;12.882;2023-05-10T02:16:28;7.43;;;3.33;;
70715;SDS011;59053;50.832;12.882;2023-05-10T02:21:59;8.15;;;3.15;;
70715;SDS011;59053;50.832;12.882;2023-05-10T02:31:00;7.70;;;3.50;;
70715;SDS011;59053;50.832;12.882;2023-05-10T02:33:33;6.50;;;3.63;;
70715;SDS011;59053;50.832;12.882;2023-05-10T02:35:58;12.35;;;3.50;;
70715;SDS011;59053;50.832;12.882;2023-05-10T02:45:27;6.63;;;3.10;;
70715;SDS011;59053;50.832;12.882;2023-05-10T02:54:05;7.70;;;3.30;;
70715;SDS011;59053;50.832;12.882;2023-05-10T03:03:23;7.35;;;3.30;;
70715;SDS011;59053;50.832;12.882;2023-05-10T03:05:49;7.38;;;3.40;;
70715;SDS011;59053;50.832;12.882;2023-05-10T03:08:22;8.13;;;3.53;;
70715;SDS011;59053;50.832;12.882;2023-05-10T03:16:55;7.55;;;3.08;;
70715;SDS011;59053;50.832;12.882;2023-05-10T03:22:38;6.28;;;3.10;;
70715;SDS011;59053;50.832;12.882;2023-05-10T03:29:26;8.63;;;3.10;;
70715;SDS011;59053;50.832;12.882;2023-05-10T03:32:00;6.38;;;3.50;;
70715;SDS011;59053;50.832;12.882;2023-05-10T03:35:08;8.23;;;3.60;;
70715;SDS011;59053;50.832;12.882;2023-05-10T03:37:35;8.07;;;3.58;;
70715;SDS011;59053;50.832;12.882;2023-05-10T03:43:01;6.28;;;3.30;;
70715;SDS011;59053;50.832;12.882;2023-05-10T03:48:47;9.43;;;3.42;;
70715;SDS011;59053;50.832;12.882;2023-05-10T03:51:13;6.32;;;3.33;;
70715;SDS011;59053;50.832;12.882;2023-05-10T03:53:45;7.97;;;3.43;;
70715;SDS011;59053;50.832;12.882;2023-05-10T03:56:10;7.35;;;3.42;;
70715;SDS011;59053;50.832;12.882;2023-05-10T03:58:36;6.50;;;3.27;;
70715;SDS011;59053;50.832;12.882;2023-05-10T04:01:08;7.00;;;3.50;;
70715;SDS011;59053;50.832;12.882;2023-05-10T04:03:34;6.82;;;3.03;;
70715;SDS011;59053;50.832;12.882;2023-05-10T04:06:01;7.53;;;3.20;;
70715;SDS011;59053;50.832;12.882;2023-05-10T04:08:41;8.80;;;3.57;;
70715;SDS011;59053;50.832;12.882;2023-05-10T04:17:24;7.85;;;3.47;;
70715;SDS011;59053;50.832;12.882;2023-05-10T04:19:56;8.50;;;3.60;;
70715;SDS011;59053;50.832;12.882;2023-05-10T04:22:22;10.55;;;3.67;;
70715;SDS011;59053;50.832;12.882;2023-05-10T04:24:54;7.73;;;3.30;;
70715;SDS011;59053;50.832;12.882;2023-05-10T04:29:58;8.32;;;3.83;;
70715;SDS011;59053;50.832;12.882;2023-05-10T04:32:24;7.93;;;3.20;;
70715;SDS011;59053;50.832;12.882;2023-05-10T04:35:01;6.87;;;3.33;;
70715;SDS011;59053;50.832;12.882;2023-05-10T04:37:34;7.20;;;3.40;;
70715;SDS011;59053;50.832;12.882;2023-05-10T04:40:12;6.55;;;3.40;;
70715;SDS011;59053;50.832;12.882;2023-05-10T04:42:39;8.18;;;3.45;;
70715;SDS011;59053;50.832;12.882;2023-05-10T04:45:06;10.70;;;3.40;;
70715;SDS011;59053;50.832;12.882;2023-05-10T04:50:19;7.82;;;3.50;;
70715;SDS011;59053;50.832;12.882;2023-05-10T04:52:44;7.47;;;3.43;;
70715;SDS011;59053;50.832;12.882;2023-05-10T04:55:25;7.37;;;3.53;;
70715;SDS011;59053;50.832;12.882;2023-05-10T04:57:58;8.55;;;3.35;;
70715;SDS011;59053;50.832;12.882;2023-05-10T05:00:30;8.23;;;3.45;;
70715;SDS011;59053;50.832;12.882;2023-05-10T05:02:57;7.15;;;3.20;;
70715;SDS011;59053;50.832;12.882;2023-05-10T05:05:28;5.72;;;3.00;;
70715;SDS011;59053;50.832;12.882;2023-05-10T05:07:54;7.57;;;3.40;;
70715;SDS011;59053;50.832;12.882;2023-05-10T05:10:19;8.80;;;3.63;;
70715;SDS011;59053;50.832;12.882;2023-05-10T05:12:44;9.63;;;3.17;;
70715;SDS011;59053;50.832;12.882;2023-05-10T05:15:23;6.57;;;3.23;;
70715;SDS011;59053;50.832;12.882;2023-05-10T05:17:48;8.95;;;3.45;;
70715;SDS011;59053;50.832;12.882;2023-05-10T05:20:14;6.77;;;3.30;;
70715;SDS011;59053;50.832;12.882;2023-05-10T05:22:43;6.00;;;3.07;;
70715;SDS011;59053;50.832;12.882;2023-05-10T05:25:09;8.10;;;3.42;;
70715;SDS011;59053;50.832;12.882;2023-05-10T05:27:34;6.50;;;3.23;;
70715;SDS011;59053;50.832;12.882;2023-05-10T05:30:00;6.32;;;3.35;;
70715;SDS011;59053;50.832;12.882;2023-05-10T05:32:25;6.47;;;3.10;;
70715;SDS011;59053;50.832;12.882;2023-05-10T05:34:52;5.73;;;3.20;;
70715;SDS011;59053;50.832;12.882;2023-05-10T05:37:18;6.80;;;3.30;;
70715;SDS011;59053;50.832;12.882;2023-05-10T05:39:44;6.10;;;3.30;;
70715;SDS011;59053;50.832;12.882;2023-05-10T05:42:10;6.30;;;3.00;;
70715;SDS011;59053;50.832;12.882;2023-05-10T05:44:36;5.78;;;3.17;;
70715;SDS011;59053;50.832;12.882;2023-05-10T05:47:01;5.57;;;3.10;;
70715;SDS011;59053;50.832;12.882;2023-05-10T05:49:44;6.15;;;3.28;;
70715;SDS011;59053;50.832;12.882;2023-05-10T05:52:13;7.13;;;3.03;;
70715;SDS011;59053;50.832;12.882;2023-05-10T05:54:45;5.50;;;3.05;;
70715;SDS011;59053;50.832;12.882;2023-05-10T05:57:13;9.53;;;3.37;;
70715;SDS011;59053;50.832;12.882;2023-05-10T05:59:38;8.85;;;3.17;;
70715;SDS011;59053;50.832;12.882;2023-05-10T06:04:55;5.50;;;2.97;;
70715;SDS011;59053;50.832;12.882;2023-05-10T06:10:27;5.65;;;2.92;;
70715;SDS011;59053;50.832;12.882;2023-05-10T06:13:00;7.63;;;3.55;;
70715;SDS011;59053;50.832;12.882;2023-05-10T06:15:36;5.73;;;3.10;;
70715;SDS011;59053;50.832;12.882;2023-05-10T06:18:01;6.28;;;3.00;;
70715;SDS011;59053;50.832;12.882;2023-05-10T06:20:26;4.90;;;2.80;;
70715;SDS011;59053;50.832;12.882;2023-05-10T06:22:54;6.30;;;3.28;;
70715;SDS011;59053;50.832;12.882;2023-05-10T06:28:29;8.05;;;3.10;;
70715;SDS011;59053;50.832;12.882;2023-05-10T06:30:57;10.93;;;3.25;;
70715;SDS011;59053;50.832;12.882;2023-05-10T06:33:24;7.70;;;3.50;;
70715;SDS011;59053;50.832;12.882;2023-05-10T06:35:52;10.00;;;3.30;;
70715;SDS011;59053;50.832;12.882;2023-05-10T06:38:17;5.60;;;3.10;;
70715;SDS011;59053;50.832;12.882;2023-05-10T06:40:45;7.07;;;3.05;;
70715;SDS011;59053;50.832;12.882;2023-05-10T06:46:36;8.95;;;3.10;;
70715;SDS011;59053;50.832;12.882;2023-05-10T06:49:02;6.78;;;3.00;;
70715;SDS011;59053;50.832;12.882;2023-05-10T06:51:27;6.07;;;3.20;;
70715;SDS011;59053;50.832;12.882;2023-05-10T06:53:52;7.50;;;2.90;;
70715;SDS011;59053;50.832;12.882;2023-05-10T06:56:18;5.97;;;3.27;;
70715;SDS011;59053;50.832;12.882;2023-05-10T06:58:46;5.20;;;3.00;;
70715;SDS011;59053;50.832;12.882;2023-05-10T07:01:25;7.95;;;2.90;;
70715;SDS011;59053;50.832;12.882;2023-05-10T07:03:51;6.60;;;2.92;;
70715;SDS011;59053;50.832;12.882;2023-05-10T07:06:16;6.57;;;3.40;;
70715;SDS011;59053;50.832;12.882;2023-05-10T07:08:41;11.13;;;3.67;;
70715;SDS011;59053;50.832;12.882;2023-05-10T07:11:07;7.90;;;3.10;;
70715;SDS011;59053;50.832;12.882;2023-05-10T07:13:32;6.10;;;3.00;;
70715;SDS011;59053;50.832;12.882;2023-05-10T07:15:59;6.32;;;3.30;;
70715;SDS011;59053;50.832;12.882;2023-05-10T07:18:25;5.45;;;3.17;;
70715;SDS011;59053;50.832;12.882;2023-05-10T07:20:50;8.87;;;3.10;;
70715;SDS011;59053;50.832;12.882;2023-05-10T07:23:16;6.00;;;3.25;;
70715;SDS011;59053;50.832;12.882;2023-05-10T07:25:46;5.10;;;3.03;;
70715;SDS011;59053;50.832;12.882;2023-05-10T07:28:13;6.40;;;3.20;;
70715;SDS011;59053;50.832;12.882;2023-05-10T07:30:39;8.80;;;3.20;;
70715;SDS011;59053;50.832;12.882;2023-05-10T07:33:11;8.57;;;3.10;;
70715;SDS011;59053;50.832;12.882;2023-05-10T07:35:37;8.40;;;2.90;;
70715;SDS011;59053;50.832;12.882;2023-05-10T07:38:03;7.50;;;3.10;;
70715;SDS011;59053;50.832;12.882;2023-05-10T07:40:28;6.00;;;3.00;;
70715;SDS011;59053;50.832;12.882;2023-05-10T07:42:55;6.60;;;3.37;;
70715;SDS011;59053;50.832;12.882;2023-05-10T07:45:22;5.45;;;3.20;;
70715;SDS011;59053;50.832;12.882;2023-05-10T07:47:48;6.40;;;3.15;;
70715;SDS011;59053;50.832;12.882;2023-05-10T07:50:13;5.77;;;3.00;;
70715;SDS011;59053;50.832;12.882;2023-05-10T07:52:52;6.57;;;3.07;;
70715;SDS011;59053;50.832;12.882;2023-05-10T07:55:18;9.02;;;3.30;;
70715;SDS011;59053;50.832;12.882;2023-05-10T08:00:22;6.65;;;3.85;;
70715;SDS011;59053;50.832;12.882;2023-05-10T08:05:33;6.63;;;3.50;;
70715;SDS011;59053;50.832;12.882;2023-05-10T08:07:59;5.20;;;3.03;;
70715;SDS011;59053;50.832;12.882;2023-05-10T08:10:24;9.63;;;3.67;;
70715;SDS011;59053;50.832;12.882;2023-05-10T08:12:50;9.53;;;3.87;;
70715;SDS011;59053;50.832;12.882;2023-05-10T08:15:15;6.43;;;3.53;;
70715;SDS011;59053;50.832;12.882;2023-05-10T08:17:45;8.80;;;3.47;;
70715;SDS011;59053;50.832;12.882;2023-05-10T08:23:30;5.97;;;3.40;;
70715;SDS011;59053;50.832;12.882;2023-05-10T08:25:56;8.20;;;3.80;;
70715;SDS011;59053;50.832;12.882;2023-05-10T08:28:21;8.37;;;3.80;;
70715;SDS011;59053;50.832;12.882;2023-05-10T08:30:49;6.43;;;3.50;;
70715;SDS011;59053;50.832;12.882;2023-05-10T08:33:15;7.10;;;3.88;;
70715;SDS011;59053;50.832;12.882;2023-05-10T08:35:41;11.57;;;3.70;;
70715;SDS011;59053;50.832;12.882;2023-05-10T08:38:07;8.63;;;3.97;;
70715;SDS011;59053;50.832;12.882;2023-05-10T08:40:32;7.40;;;3.60;;
70715;SDS011;59053;50.832;12.882;2023-05-10T08:46:25;7.47;;;3.70;;
70715;SDS011;59053;50.832;12.882;2023-05-10T08:48:51;9.40;;;3.42;;
70715;SDS011;59053;50.832;12.882;2023-05-10T08:51:23;6.75;;;3.80;;
70715;SDS011;59053;50.832;12.882;2023-05-10T08:53:51;7.40;;;3.58;;
70715;SDS011;59053;50.832;12.882;2023-05-10T08:56:17;8.30;;;3.60;;
70715;SDS011;59053;50.832;12.882;2023-05-10T08:58:43;7.82;;;3.60;;
70715;SDS011;59053;50.832;12.882;2023-05-10T09:01:08;7.63;;;3.80;;
70715;SDS011;59053;50.832;12.882;2023-05-10T09:03:34;8.25;;;4.20;;
70715;SDS011;59053;50.832;12.882;2023-05-10T09:06:05;9.90;;;4.23;;
70715;SDS011;59053;50.832;12.882;2023-05-10T09:08:31;8.73;;;3.97;;
70715;SDS011;59053;50.832;12.882;2023-05-10T09:10:57;8.35;;;4.40;;
70715;SDS011;59053;50.832;12.882;2023-05-10T09:13:27;12.40;;;4.30;;
70715;SDS011;59053;50.832;12.882;2023-05-10T09:15:52;8.68;;;4.22;;
70715;SDS011;59053;50.832;12.882;2023-05-10T09:21:45;7.70;;;4.15;;
70715;SDS011;59053;50.832;12.882;2023-05-10T09:24:11;9.23;;;4.28;;
70715;SDS011;59053;50.832;12.882;2023-05-10T09:26:47;7.93;;;4.30;;
70715;SDS011;59053;50.832;12.882;2023-05-10T09:32:04;7.60;;;4.20;;
70715;SDS011;59053;50.832;12.882;2023-05-10T09:34:30;9.83;;;4.30;;
70715;SDS011;59053;50.832;12.882;2023-05-10T09:37:04;7.45;;;4.28;;
70715;SDS011;59053;50.832;12.882;2023-05-10T09:39:30;8.10;;;3.75;;
70715;SDS011;59053;50.832;12.882;2023-05-10T09:41:57;8.57;;;4.30;;
70715;SDS011;59053;50.832;12.882;2023-05-10T09:47:16;10.43;;;4.50;;
70715;SDS011;59053;50.832;12.882;2023-05-10T09:49:42;10.50;;;4.47;;
70715;SDS011;59053;50.832;12.882;2023-05-10T09:52:08;8.57;;;4.43;;
70715;SDS011;59053;50.832;12.882;2023-05-10T09:57:34;13.15;;;5.50;;
70715;SDS011;59053;50.832;12.882;2023-05-10T10:00:00;10.53;;;5.40;;
70715;SDS011;59053;50.832;12.882;2023-05-10T10:02:28;18.80;;;6.45;;
70715;SDS011;59053;50.832;12.882;2023-05-10T10:07:29;13.63;;;5.72;;
70715;SDS011;59053;50.832;12.882;2023-05-10T10:09:54;11.93;;;5.83;;
70715;SDS011;59053;50.832;12.882;2023-05-10T10:12:20;12.07;;;6.57;;
70715;SDS011;59053;50.832;12.882;2023-05-10T10:14:56;11.20;;;5.83;;
70715;SDS011;59053;50.832;12.882;2023-05-10T10:23:51;9.80;;;5.40;;
70715;SDS011;59053;50.832;12.882;2023-05-10T10:26:18;11.05;;;5.65;;
70715;SDS011;59053;50.832;12.882;2023-05-10T10:34:55;12.27;;;5.25;;
70715;SDS011;59053;50.832;12.882;2023-05-10T10:40:44;10.10;;;5.05;;
70715;SDS011;59053;50.832;12.882;2023-05-10T10:49:31;9.73;;;5.10;;
70715;SDS011;59053;50.832;12.882;2023-05-10T10:51:39;10.77;;;4.80;;
70715;SDS011;59053;50.832;12.882;2023-05-10T10:54:12;9.32;;;4.85;;
70715;SDS011;59053;50.832;12.882;2023-05-10T10:56:44;10.85;;;4.80;;
70715;SDS011;59053;50.832;12.882;2023-05-10T10:59:10;9.63;;;4.88;;
70715;SDS011;59053;50.832;12.882;2023-05-10T11:01:42;11.90;;;4.80;;
70715;SDS011;59053;50.832;12.882;2023-05-10T11:07:16;9.60;;;4.88;;
70715;SDS011;59053;50.832;12.882;2023-05-10T11:09:42;8.75;;;4.97;;
70715;SDS011;59053;50.832;12.882;2023-05-10T11:12:10;8.60;;;4.57;;
70715;SDS011;59053;50.832;12.882;2023-05-10T11:14:35;9.25;;;4.88;;
70715;SDS011;59053;50.832;12.882;2023-05-10T11:17:00;11.67;;;4.80;;
70715;SDS011;59053;50.832;12.882;2023-05-10T11:19:29;10.20;;;4.70;;
70715;SDS011;59053;50.832;12.882;2023-05-10T11:24:29;8.30;;;4.60;;
70715;SDS011;59053;50.832;12.882;2023-05-10T11:26:57;9.38;;;4.90;;
70715;SDS011;59053;50.832;12.882;2023-05-10T11:29:25;9.57;;;5.22;;
70715;SDS011;59053;50.832;12.882;2023-05-10T11:31:51;10.03;;;5.10;;
70715;SDS011;59053;50.832;12.882;2023-05-10T11:34:30;10.67;;;4.87;;
70715;SDS011;59053;50.832;12.882;2023-05-10T11:36:58;8.48;;;4.80;;
70715;SDS011;59053;50.832;12.882;2023-05-10T11:39:31;11.75;;;5.10;;
70715;SDS011;59053;50.832;12.882;2023-05-10T11:41:57;9.88;;;5.18;;
70715;SDS011;59053;50.832;12.882;2023-05-10T11:44:23;8.88;;;4.97;;
70715;SDS011;59053;50.832;12.882;2023-05-10T11:46:48;9.10;;;5.17;;
70715;SDS011;59053;50.832;12.882;2023-05-10T11:49:14;12.07;;;5.57;;
70715;SDS011;59053;50.832;12.882;2023-05-10T11:51:39;10.53;;;5.50;;
70715;SDS011;59053;50.832;12.882;2023-05-10T11:54:08;14.27;;;5.80;;
70715;SDS011;59053;50.832;12.882;2023-05-10T11:56:39;9.73;;;5.38;;
70715;SDS011;59053;50.832;12.882;2023-05-10T11:59:06;8.50;;;4.90;;
70715;SDS011;59053;50.832;12.882;2023-05-10T12:01:32;9.27;;;5.15;;
70715;SDS011;59053;50.832;12.882;2023-05-10T12:03:59;9.52;;;5.10;;
70715;SDS011;59053;50.832;12.882;2023-05-10T12:06:39;9.23;;;5.43;;
70715;SDS011;59053;50.832;12.882;2023-05-10T12:09:06;9.88;;;5.47;;
70715;SDS011;59053;50.832;12.882;2023-05-10T12:11:35;10.40;;;5.50;;
70715;SDS011;59053;50.832;12.882;2023-05-10T12:17:15;11.68;;;5.35;;
70715;SDS011;59053;50.832;12.882;2023-05-10T12:19:40;10.90;;;5.73;;
70715;SDS011;59053;50.832;12.882;2023-05-10T12:22:09;10.47;;;6.20;;
70715;SDS011;59053;50.832;12.882;2023-05-10T12:27:31;12.40;;;6.32;;
70715;SDS011;59053;50.832;12.882;2023-05-10T12:29:58;11.93;;;6.18;;
70715;SDS011;59053;50.832;12.882;2023-05-10T12:32:44;11.50;;;5.70;;
70715;SDS011;59053;50.832;12.882;2023-05-10T12:35:09;10.90;;;6.10;;
70715;SDS011;59053;50.832;12.882;2023-05-10T12:37:36;10.43;;;5.90;;
70715;SDS011;59053;50.832;12.882;2023-05-10T12:40:06;10.73;;;6.40;;
70715;SDS011;59053;50.832;12.882;2023-05-10T12:42:33;14.40;;;6.45;;
70715;SDS011;59053;50.832;12.882;2023-05-10T12:44:59;13.98;;;6.25;;
70715;SDS011;59053;50.832;12.882;2023-05-10T12:47:24;12.90;;;7.17;;
70715;SDS011;59053;50.832;12.882;2023-05-10T12:50:03;12.50;;;6.80;;
70715;SDS011;59053;50.832;12.882;2023-05-10T12:52:29;11.77;;;6.45;;
70715;SDS011;59053;50.832;12.882;2023-05-10T12:54:55;12.05;;;6.78;;
70715;SDS011;59053;50.832;12.882;2023-05-10T12:57:20;12.47;;;7.13;;
70715;SDS011;59053;50.832;12.882;2023-05-10T12:59:46;12.32;;;6.88;;
70715;SDS011;59053;50.832;12.882;2023-05-10T13:02:11;12.87;;;7.00;;
70715;SDS011;59053;50.832;12.882;2023-05-10T13:04:37;13.47;;;7.07;;
70715;SDS011;59053;50.832;12.882;2023-05-10T13:07:05;11.23;;;6.15;;
70715;SDS011;59053;50.832;12.882;2023-05-10T13:09:31;16.48;;;7.15;;
70715;SDS011;59053;50.832;12.882;2023-05-10T13:12:10;11.27;;;6.53;;
70715;SDS011;59053;50.832;12.882;2023-05-10T13:14:36;10.98;;;6.70;;
70715;SDS011;59053;50.832;12.882;2023-05-10T13:17:01;12.63;;;6.63;;
70715;SDS011;59053;50.832;12.882;2023-05-10T13:19:26;12.33;;;6.53;;
70715;SDS011;59053;50.832;12.882;2023-05-10T13:21:52;11.45;;;6.60;;
70715;SDS011;59053;50.832;12.882;2023-05-10T13:24:17;10.80;;;6.33;;
70715;SDS011;59053;50.832;12.882;2023-05-10T13:26:43;11.10;;;6.67;;
70715;SDS011;59053;50.832;12.882;2023-05-10T13:29:14;10.80;;;5.90;;
70715;SDS011;59053;50.832;12.882;2023-05-10T13:31:44;12.15;;;6.60;;
70715;SDS011;59053;50.832;12.882;2023-05-10T13:34:09;10.35;;;6.35;;
70715;SDS011;59053;50.832;12.882;2023-05-10T13:36:35;11.53;;;6.30;;
70715;SDS011;59053;50.832;12.882;2023-05-10T13:39:00;12.23;;;5.80;;
70715;SDS011;59053;50.832;12.882;2023-05-10T13:41:27;11.07;;;6.55;;
70715;SDS011;59053;50.832;12.882;2023-05-10T13:43:53;11.20;;;5.93;;
70715;SDS011;59053;50.832;12.882;2023-05-10T13:46:18;9.73;;;6.03;;
70715;SDS011;59053;50.832;12.882;2023-05-10T13:49:01;9.95;;;6.38;;
70715;SDS011;59053;50.832;12.882;2023-05-10T13:51:28;11.98;;;6.20;;
70715;SDS011;59053;50.832;12.882;2023-05-10T13:54:02;9.35;;;5.75;;
70715;SDS011;59053;50.832;12.882;2023-05-10T13:56:28;9.60;;;5.87;;
70715;SDS011;59053;50.832;12.882;2023-05-10T13:58:53;8.90;;;5.50;;
70715;SDS011;59053;50.832;12.882;2023-05-10T14:01:18;10.77;;;5.30;;
70715;SDS011;59053;50.832;12.882;2023-05-10T14:03:44;9.33;;;5.70;;
70715;SDS011;59053;50.832;12.882;2023-05-10T14:06:09;10.00;;;5.50;;
70715;SDS011;59053;50.832;12.882;2023-05-10T14:12:22;8.02;;;4.80;;
70715;SDS011;59053;50.832;12.882;2023-05-10T14:14:47;8.37;;;5.40;;
70715;SDS011;59053;50.832;12.882;2023-05-10T14:17:12;8.13;;;5.20;;
70715;SDS011;59053;50.832;12.882;2023-05-10T14:19:38;10.30;;;5.33;;
70715;SDS011;59053;50.832;12.882;2023-05-10T14:24:49;8.43;;;5.20;;
70715;SDS011;59053;50.832;12.882;2023-05-10T14:27:15;9.38;;;5.25;;
70715;SDS011;59053;50.832;12.882;2023-05-10T14:29:40;10.03;;;5.67;;
70715;SDS011;59053;50.832;12.882;2023-05-10T14:32:07;9.57;;;5.25;;
70715;SDS011;59053;50.832;12.882;2023-05-10T14:34:33;12.45;;;5.18;;
70715;SDS011;59053;50.832;12.882;2023-05-10T14:39:51;8.45;;;4.80;;
70715;SDS011;59053;50.832;12.882;2023-05-10T14:42:17;8.33;;;4.57;;
70715;SDS011;59053;50.832;12.882;2023-05-10T14:44:42;9.27;;;4.90;;
70715;SDS011;59053;50.832;12.882;2023-05-10T14:50:05;8.02;;;4.65;;
70715;SDS011;59053;50.832;12.882;2023-05-10T14:52:31;9.20;;;4.53;;
70715;SDS011;59053;50.832;12.882;2023-05-10T14:54:56;10.17;;;4.70;;
70715;SDS011;59053;50.832;12.882;2023-05-10T14:57:23;8.07;;;4.50;;
70715;SDS011;59053;50.832;12.882;2023-05-10T14:59:49;7.90;;;4.40;;
70715;SDS011;59053;50.832;12.882;2023-05-10T15:02:14;8.70;;;4.40;;
70715;SDS011;59053;50.832;12.882;2023-05-10T15:04:40;8.83;;;4.17;;
70715;SDS011;59053;50.832;12.882;2023-05-10T15:07:05;7.40;;;4.22;;
70715;SDS011;59053;50.832;12.882;2023-05-10T15:09:38;6.77;;;4.17;;
70715;SDS011;59053;50.832;12.882;2023-05-10T15:12:03;7.38;;;4.18;;
70715;SDS011;59053;50.832;12.882;2023-05-10T15:14:29;6.27;;;3.70;;
70715;SDS011;59053;50.832;12.882;2023-05-10T15:16:55;7.20;;;4.10;;
70715;SDS011;59053;50.832;12.882;2023-05-10T15:19:22;6.27;;;3.63;;
70715;SDS011;59053;50.832;12.882;2023-05-10T15:21:55;8.00;;;4.12;;
70715;SDS011;59053;50.832;12.882;2023-05-10T15:24:39;7.13;;;3.97;;
70715;SDS011;59053;50.832;12.882;2023-05-10T15:32:52;9.48;;;4.63;;
70715;SDS011;59053;50.832;12.882;2023-05-10T15:35:18;7.50;;;4.25;;
70715;SDS011;59053;50.832;12.882;2023-05-10T15:37:43;9.90;;;4.20;;
70715;SDS011;59053;50.832;12.882;2023-05-10T15:40:09;7.00;;;3.85;;
70715;SDS011;59053;50.832;12.882;2023-05-10T15:42:35;6.83;;;3.83;;
70715;SDS011;59053;50.832;12.882;2023-05-10T15:45:00;7.93;;;3.43;;
70715;SDS011;59053;50.832;12.882;2023-05-10T15:47:26;5.57;;;3.20;;
70715;SDS011;59053;50.832;12.882;2023-05-10T15:49:52;6.10;;;3.53;;
70715;SDS011;59053;50.832;12.882;2023-05-10T15:52:25;4.75;;;3.00;;
70715;SDS011;59053;50.832;12.882;2023-05-10T16:01:32;7.47;;;3.10;;
70715;SDS011;59053;50.832;12.882;2023-05-10T16:04:00;5.77;;;3.23;;
70715;SDS011;59053;50.832;12.882;2023-05-10T16:10:00;6.85;;;3.60;;
70715;SDS011;59053;50.832;12.882;2023-05-10T16:12:29;7.25;;;3.83;;
70715;SDS011;59053;50.832;12.882;2023-05-10T16:15:01;6.72;;;3.83;;
70715;SDS011;59053;50.832;12.882;2023-05-10T16:17:26;5.40;;;3.27;;
70715;SDS011;59053;50.832;12.882;2023-05-10T16:19:52;5.05;;;3.15;;
70715;SDS011;59053;50.832;12.882;2023-05-10T16:22:17;4.30;;;2.50;;
70715;SDS011;59053;50.832;12.882;2023-05-10T16:24:43;5.60;;;2.40;;
70715;SDS011;59053;50.832;12.882;2023-05-10T16:27:08;3.30;;;2.10;;
70715;SDS011;59053;50.832;12.882;2023-05-10T16:29:34;3.63;;;2.17;;
70715;SDS011;59053;50.832;12.882;2023-05-10T16:31:59;2.90;;;1.93;;
70715;SDS011;59053;50.832;12.882;2023-05-10T16:38:25;4.00;;;2.40;;
70715;SDS011;59053;50.832;12.882;2023-05-10T16:40:50;4.13;;;2.50;;
70715;SDS011;59053;50.832;12.882;2023-05-10T16:45:51;5.15;;;2.90;;
70715;SDS011;59053;50.832;12.882;2023-05-10T16:48:16;5.87;;;3.13;;
70715;SDS011;59053;50.832;12.882;2023-05-10T16:50:44;5.83;;;3.57;;
70715;SDS011;59053;50.832;12.882;2023-05-10T16:56:40;6.40;;;3.50;;
70715;SDS011;59053;50.832;12.882;2023-05-10T16:59:07;5.80;;;3.27;;
70715;SDS011;59053;50.832;12.882;2023-05-10T17:01:32;6.18;;;3.40;;
70715;SDS011;59053;50.832;12.882;2023-05-10T17:04:00;6.05;;;3.33;;
70715;SDS011;59053;50.832;12.882;2023-05-10T17:06:26;6.30;;;3.40;;
70715;SDS011;59053;50.832;12.882;2023-05-10T17:08:51;6.83;;;3.63;;
70715;SDS011;59053;50.832;12.882;2023-05-10T17:11:16;6.60;;;3.63;;
70715;SDS011;59053;50.832;12.882;2023-05-10T17:13:45;6.20;;;3.20;;
70715;SDS011;59053;50.832;12.882;2023-05-10T17:16:24;6.13;;;3.40;;
70715;SDS011;59053;50.832;12.882;2023-05-10T17:18:50;5.95;;;3.33;;
70715;SDS011;59053;50.832;12.882;2023-05-10T17:21:17;4.97;;;2.80;;
70715;SDS011;59053;50.832;12.882;2023-05-10T17:23:45;4.68;;;2.88;;
70715;SDS011;59053;50.832;12.882;2023-05-10T17:28:52;4.90;;;2.83;;
70715;SDS011;59053;50.832;12.882;2023-05-10T17:37:54;6.20;;;2.85;;
70715;SDS011;59053;50.832;12.882;2023-05-10T17:40:22;5.82;;;2.92;;
70715;SDS011;59053;50.832;12.882;2023-05-10T17:42:48;6.18;;;3.13;;
70715;SDS011;59053;50.832;12.882;2023-05-10T17:45:15;5.60;;;3.30;;
70715;SDS011;59053;50.832;12.882;2023-05-10T17:53:30;5.95;;;3.60;;
70715;SDS011;59053;50.832;12.882;2023-05-10T17:58:56;8.23;;;4.07;;
70715;SDS011;59053;50.832;12.882;2023-05-10T18:01:21;8.67;;;3.87;;
70715;SDS011;59053;50.832;12.882;2023-05-10T18:04:01;6.80;;;3.63;;
70715;SDS011;59053;50.832;12.882;2023-05-10T18:06:27;7.37;;;4.33;;
70715;SDS011;59053;50.832;12.882;2023-05-10T18:08:52;7.47;;;4.13;;
70715;SDS011;59053;50.832;12.882;2023-05-10T18:14:30;7.50;;;4.20;;
70715;SDS011;59053;50.832;12.882;2023-05-10T18:16:55;9.13;;;4.82;;
70715;SDS011;59053;50.832;12.882;2023-05-10T18:22:27;10.30;;;5.13;;
70715;SDS011;59053;50.832;12.882;2023-05-10T18:25:01;9.65;;;5.65;;
70715;SDS011;59053;50.832;12.882;2023-05-10T18:27:43;9.82;;;6.18;;
70715;SDS011;59053;50.832;12.882;2023-05-10T18:30:08;9.75;;;5.90;;
70715;SDS011;59053;50.832;12.882;2023-05-10T18:32:36;11.10;;;6.22;;
70715;SDS011;59053;50.832;12.882;2023-05-10T18:35:02;13.67;;;8.03;;
70715;SDS011;59053;50.832;12.882;2023-05-10T18:37:28;16.42;;;8.98;;
70715;SDS011;59053;50.832;12.882;2023-05-10T18:39:53;14.13;;;7.60;;